createdAt,value
2022-09-26T00:14:31.397Z,12.86
2022-09-26T00:29:36.916Z,12.84
2022-09-26T00:44:47.870Z,12.53
2022-09-26T00:59:59.542Z,12.49
2022-09-26T01:15:07.629Z,12.43
2022-09-26T01:30:16.858Z,12.29
2022-09-26T01:45:24.925Z,12.20
2022-09-26T02:00:32.297Z,12.27
2022-09-26T02:15:40.674Z,12.21
2022-09-26T02:30:49.452Z,12.05
2022-09-26T02:46:03.178Z,12.08
2022-09-26T03:01:16.194Z,11.88
2022-09-26T03:16:24.067Z,11.59
2022-09-26T03:31:29.800Z,11.52
2022-09-26T03:46:39.801Z,11.53
2022-09-26T04:01:45.705Z,11.44
2022-09-26T04:16:51.375Z,11.39
2022-09-26T04:31:57.386Z,11.44
2022-09-26T04:47:03.229Z,11.41
2022-09-26T05:02:08.880Z,11.34
2022-09-26T05:17:15.719Z,11.34
2022-09-26T05:32:21.324Z,11.41
2022-09-26T05:47:28.651Z,11.49
2022-09-26T06:02:35.176Z,11.88
2022-09-26T06:17:40.835Z,12.08
2022-09-26T06:32:46.640Z,12.50
2022-09-26T06:47:52.377Z,12.23
2022-09-26T07:02:58.276Z,12.31
2022-09-26T07:18:06.651Z,12.81
2022-09-26T07:33:12.952Z,12.95
2022-09-26T07:48:36.026Z,13.22
2022-09-26T08:03:42.404Z,13.33
2022-09-26T08:18:48.201Z,14.50
2022-09-26T08:33:54.280Z,15.02
2022-09-26T08:49:19.436Z,15.48
2022-09-26T09:04:27.812Z,15.69
2022-09-26T09:19:39.759Z,16.94
2022-09-26T09:34:51.539Z,19.20
2022-09-26T09:50:00.657Z,18.62
2022-09-26T10:05:24.606Z,16.57
2022-09-26T10:20:53.136Z,16.04
2022-09-26T10:36:10.237Z,16.14
2022-09-26T10:51:19.589Z,16.22
2022-09-26T11:06:28.389Z,17.00
2022-09-26T11:21:41.589Z,17.01
2022-09-26T11:37:04.406Z,17.55
2022-09-26T11:52:24.994Z,17.91
2022-09-26T12:07:39.452Z,17.56
2022-09-26T12:22:52.331Z,17.64
2022-09-26T12:38:32.834Z,17.22
2022-09-26T12:53:54.701Z,17.16
2022-09-26T13:09:11.270Z,17.00
2022-09-26T13:24:22.927Z,17.08
2022-09-26T13:39:34.713Z,17.02
2022-09-26T13:54:57.526Z,16.88
2022-09-26T14:10:22.308Z,16.84
2022-09-26T14:26:06.081Z,16.89
2022-09-26T14:41:19.085Z,16.67
2022-09-26T14:56:47.700Z,16.72
2022-09-26T15:11:58.927Z,16.56
2022-09-26T15:27:12.650Z,16.14
2022-09-26T15:42:44.627Z,15.91
2022-09-26T15:57:53.066Z,15.74
2022-09-26T16:13:00.801Z,15.56
2022-09-26T16:28:45.029Z,15.28
2022-09-26T16:43:59.438Z,15.08
2022-09-26T16:59:07.019Z,14.85
2022-09-26T17:14:17.753Z,14.68
2022-09-26T17:29:26.888Z,14.58
2022-09-26T17:44:33.116Z,14.44
2022-09-26T17:59:42.414Z,14.40
2022-09-26T18:14:48.131Z,14.41
2022-09-26T18:29:55.055Z,14.56
2022-09-26T18:45:04.598Z,14.10
2022-09-26T19:00:13.025Z,13.44
2022-09-26T19:15:19.771Z,13.00
2022-09-26T19:30:25.305Z,12.74
2022-09-26T19:45:32.236Z,12.53
2022-09-26T20:00:41.712Z,12.55
2022-09-26T20:15:48.674Z,12.50
2022-09-26T20:30:55.666Z,12.41
2022-09-26T20:46:03.393Z,12.20
2022-09-26T21:01:14.778Z,12.11
2022-09-26T21:16:22.145Z,11.76
2022-09-26T21:31:29.677Z,11.58
2022-09-26T21:46:35.437Z,11.64
2022-09-26T22:01:41.421Z,11.59
2022-09-26T22:16:47.197Z,11.48
2022-09-26T22:31:52.851Z,11.12
2022-09-26T22:46:58.414Z,10.99
2022-09-26T23:02:04.880Z,11.16
2022-09-26T23:17:10.687Z,11.41
2022-09-26T23:32:17.080Z,11.58
2022-09-26T23:47:22.819Z,11.61
